sensor_id;sensor_type;location;lat;lon;timestamp;P1;durP1;ratioP1;P2;durP2;ratioP2
6412;SDS011;3239;48.714;9.472;2023-03-31T00:00:35;6.40;;;2.90;;
6412;SDS011;3239;48.714;9.472;2023-03-31T00:03:01;6.27;;;2.80;;
6412;SDS011;3239;48.714;9.472;2023-03-31T00:05:27;4.70;;;2.80;;
6412;SDS011;3239;48.714;9.472;2023-03-31T00:07:56;3.43;;;2.20;;
6412;SDS011;3239;48.714;9.472;2023-03-31T00:10:28;4.10;;;2.57;;
6412;SDS011;3239;48.714;9.472;2023-03-31T00:12:57;2.73;;;1.90;;
6412;SDS011;3239;48.714;9.472;2023-03-31T00:15:24;4.40;;;2.67;;
6412;SDS011;3239;48.714;9.472;2023-03-31T00:17:51;4.63;;;2.53;;
6412;SDS011;3239;48.714;9.472;2023-03-31T00:20:17;4.67;;;2.30;;
6412;SDS011;3239;48.714;9.472;2023-03-31T00:22:43;3.60;;;2.20;;
6412;SDS011;3239;48.714;9.472;2023-03-31T00:25:12;5.67;;;2.37;;
6412;SDS011;3239;48.714;9.472;2023-03-31T00:27:42;4.60;;;2.10;;
6412;SDS011;3239;48.714;9.472;2023-03-31T00:30:09;5.00;;;1.90;;
6412;SDS011;3239;48.714;9.472;2023-03-31T00:32:39;7.63;;;1.90;;
6412;SDS011;3239;48.714;9.472;2023-03-31T00:35:05;6.33;;;4.20;;
6412;SDS011;3239;48.714;9.472;2023-03-31T00:37:32;23.50;;;7.97;;
6412;SDS011;3239;48.714;9.472;2023-03-31T00:39:59;20.00;;;8.50;;
6412;SDS011;3239;48.714;9.472;2023-03-31T00:42:25;19.63;;;7.90;;
6412;SDS011;3239;48.714;9.472;2023-03-31T00:47:49;17.00;;;7.13;;
6412;SDS011;3239;48.714;9.472;2023-03-31T00:50:42;16.90;;;7.83;;
6412;SDS011;3239;48.714;9.472;2023-03-31T00:53:23;13.80;;;6.83;;
6412;SDS011;3239;48.714;9.472;2023-03-31T00:55:54;12.80;;;6.17;;
6412;SDS011;3239;48.714;9.472;2023-03-31T00:58:26;15.43;;;5.57;;
6412;SDS011;3239;48.714;9.472;2023-03-31T01:00:53;11.80;;;5.27;;
6412;SDS011;3239;48.714;9.472;2023-03-31T01:03:22;6.90;;;3.43;;
6412;SDS011;3239;48.714;9.472;2023-03-31T01:05:50;9.13;;;3.37;;
6412;SDS011;3239;48.714;9.472;2023-03-31T01:08:24;5.83;;;3.43;;
6412;SDS011;3239;48.714;9.472;2023-03-31T01:10:53;10.40;;;4.50;;
6412;SDS011;3239;48.714;9.472;2023-03-31T01:13:23;7.30;;;4.70;;
6412;SDS011;3239;48.714;9.472;2023-03-31T01:15:50;10.10;;;5.10;;
6412;SDS011;3239;48.714;9.472;2023-03-31T01:18:16;7.20;;;4.77;;
6412;SDS011;3239;48.714;9.472;2023-03-31T01:30:11;9.33;;;4.53;;
6412;SDS011;3239;48.714;9.472;2023-03-31T01:35:30;7.97;;;4.30;;
6412;SDS011;3239;48.714;9.472;2023-03-31T01:41:30;8.27;;;3.90;;
6412;SDS011;3239;48.714;9.472;2023-03-31T01:44:54;8.77;;;3.80;;
6412;SDS011;3239;48.714;9.472;2023-03-31T01:47:55;8.80;;;3.43;;
6412;SDS011;3239;48.714;9.472;2023-03-31T01:56:31;5.40;;;2.87;;
6412;SDS011;3239;48.714;9.472;2023-03-31T01:59:15;5.67;;;3.20;;
6412;SDS011;3239;48.714;9.472;2023-03-31T02:02:21;7.07;;;3.30;;
6412;SDS011;3239;48.714;9.472;2023-03-31T02:05:11;5.07;;;2.70;;
6412;SDS011;3239;48.714;9.472;2023-03-31T02:07:45;6.13;;;2.83;;
6412;SDS011;3239;48.714;9.472;2023-03-31T02:10:22;8.30;;;2.70;;
6412;SDS011;3239;48.714;9.472;2023-03-31T02:12:53;5.20;;;2.50;;
6412;SDS011;3239;48.714;9.472;2023-03-31T02:15:22;4.83;;;2.30;;
6412;SDS011;3239;48.714;9.472;2023-03-31T02:17:54;5.53;;;2.30;;
6412;SDS011;3239;48.714;9.472;2023-03-31T02:20:23;8.13;;;2.27;;
6412;SDS011;3239;48.714;9.472;2023-03-31T02:22:52;4.67;;;1.67;;
6412;SDS011;3239;48.714;9.472;2023-03-31T02:25:21;11.23;;;2.60;;
6412;SDS011;3239;48.714;9.472;2023-03-31T02:27:56;6.70;;;2.27;;
6412;SDS011;3239;48.714;9.472;2023-03-31T02:30:45;7.47;;;2.00;;
6412;SDS011;3239;48.714;9.472;2023-03-31T02:34:03;5.03;;;1.73;;
6412;SDS011;3239;48.714;9.472;2023-03-31T02:36:28;4.50;;;1.73;;
6412;SDS011;3239;48.714;9.472;2023-03-31T02:38:55;6.13;;;2.03;;
6412;SDS011;3239;48.714;9.472;2023-03-31T02:41:27;4.13;;;2.03;;
6412;SDS011;3239;48.714;9.472;2023-03-31T02:43:53;6.70;;;2.20;;
6412;SDS011;3239;48.714;9.472;2023-03-31T02:46:19;5.70;;;2.37;;
6412;SDS011;3239;48.714;9.472;2023-03-31T02:48:47;7.87;;;2.20;;
6412;SDS011;3239;48.714;9.472;2023-03-31T02:57:14;5.33;;;1.30;;
6412;SDS011;3239;48.714;9.472;2023-03-31T03:08:52;7.07;;;1.40;;
6412;SDS011;3239;48.714;9.472;2023-03-31T03:11:51;6.30;;;1.80;;
6412;SDS011;3239;48.714;9.472;2023-03-31T03:14:38;6.33;;;2.20;;
6412;SDS011;3239;48.714;9.472;2023-03-31T03:17:57;5.33;;;1.73;;
6412;SDS011;3239;48.714;9.472;2023-03-31T03:20:09;5.47;;;2.37;;
6412;SDS011;3239;48.714;9.472;2023-03-31T03:22:38;3.97;;;1.50;;
6412;SDS011;3239;48.714;9.472;2023-03-31T03:25:05;7.10;;;2.27;;
6412;SDS011;3239;48.714;9.472;2023-03-31T03:27:34;3.73;;;2.20;;
6412;SDS011;3239;48.714;9.472;2023-03-31T03:30:01;6.30;;;2.23;;
6412;SDS011;3239;48.714;9.472;2023-03-31T03:32:29;7.33;;;2.67;;
6412;SDS011;3239;48.714;9.472;2023-03-31T03:34:55;4.80;;;1.83;;
6412;SDS011;3239;48.714;9.472;2023-03-31T03:37:21;4.00;;;2.00;;
6412;SDS011;3239;48.714;9.472;2023-03-31T03:39:46;7.40;;;2.60;;
6412;SDS011;3239;48.714;9.472;2023-03-31T03:42:12;3.63;;;1.90;;
6412;SDS011;3239;48.714;9.472;2023-03-31T03:44:38;3.17;;;2.17;;
6412;SDS011;3239;48.714;9.472;2023-03-31T03:47:04;4.40;;;1.80;;
6412;SDS011;3239;48.714;9.472;2023-03-31T03:49:30;4.50;;;2.57;;
6412;SDS011;3239;48.714;9.472;2023-03-31T03:51:56;10.80;;;2.57;;
6412;SDS011;3239;48.714;9.472;2023-03-31T03:54:21;5.10;;;2.93;;
6412;SDS011;3239;48.714;9.472;2023-03-31T03:56:47;7.07;;;3.67;;
6412;SDS011;3239;48.714;9.472;2023-03-31T03:59:13;6.43;;;3.17;;
6412;SDS011;3239;48.714;9.472;2023-03-31T04:01:39;7.97;;;2.97;;
6412;SDS011;3239;48.714;9.472;2023-03-31T04:04:05;6.60;;;2.30;;
6412;SDS011;3239;48.714;9.472;2023-03-31T04:06:31;10.10;;;3.20;;
6412;SDS011;3239;48.714;9.472;2023-03-31T04:08:57;4.53;;;2.60;;
6412;SDS011;3239;48.714;9.472;2023-03-31T04:11:22;6.50;;;2.40;;
6412;SDS011;3239;48.714;9.472;2023-03-31T04:13:48;10.50;;;3.37;;
6412;SDS011;3239;48.714;9.472;2023-03-31T04:16:14;8.83;;;3.50;;
6412;SDS011;3239;48.714;9.472;2023-03-31T04:18:40;7.00;;;2.27;;
6412;SDS011;3239;48.714;9.472;2023-03-31T04:21:07;5.83;;;3.33;;
6412;SDS011;3239;48.714;9.472;2023-03-31T04:23:36;6.13;;;2.10;;
6412;SDS011;3239;48.714;9.472;2023-03-31T04:26:13;6.17;;;2.20;;
6412;SDS011;3239;48.714;9.472;2023-03-31T04:28:42;3.60;;;1.90;;
6412;SDS011;3239;48.714;9.472;2023-03-31T04:31:11;5.90;;;2.70;;
6412;SDS011;3239;48.714;9.472;2023-03-31T04:33:49;6.27;;;2.13;;
6412;SDS011;3239;48.714;9.472;2023-03-31T04:36:16;5.80;;;2.23;;
6412;SDS011;3239;48.714;9.472;2023-03-31T04:38:43;4.83;;;2.40;;
6412;SDS011;3239;48.714;9.472;2023-03-31T04:41:16;5.30;;;3.77;;
6412;SDS011;3239;48.714;9.472;2023-03-31T04:43:42;7.70;;;4.33;;
6412;SDS011;3239;48.714;9.472;2023-03-31T04:46:08;7.50;;;3.90;;
6412;SDS011;3239;48.714;9.472;2023-03-31T04:48:34;7.60;;;3.87;;
6412;SDS011;3239;48.714;9.472;2023-03-31T04:51:01;6.93;;;3.83;;
6412;SDS011;3239;48.714;9.472;2023-03-31T04:53:27;9.40;;;3.80;;
6412;SDS011;3239;48.714;9.472;2023-03-31T04:55:53;6.50;;;3.23;;
6412;SDS011;3239;48.714;9.472;2023-03-31T04:58:19;9.67;;;3.40;;
6412;SDS011;3239;48.714;9.472;2023-03-31T05:00:45;4.97;;;3.40;;
6412;SDS011;3239;48.714;9.472;2023-03-31T05:03:10;6.77;;;3.43;;
6412;SDS011;3239;48.714;9.472;2023-03-31T05:05:36;7.13;;;3.13;;
6412;SDS011;3239;48.714;9.472;2023-03-31T05:08:02;3.70;;;2.87;;
6412;SDS011;3239;48.714;9.472;2023-03-31T05:10:28;5.53;;;2.80;;
6412;SDS011;3239;48.714;9.472;2023-03-31T05:12:55;6.80;;;3.20;;
6412;SDS011;3239;48.714;9.472;2023-03-31T05:15:21;8.23;;;3.60;;
6412;SDS011;3239;48.714;9.472;2023-03-31T05:17:50;8.53;;;3.33;;
6412;SDS011;3239;48.714;9.472;2023-03-31T05:20:17;9.27;;;3.10;;
6412;SDS011;3239;48.714;9.472;2023-03-31T05:22:44;11.27;;;3.47;;
6412;SDS011;3239;48.714;9.472;2023-03-31T05:25:11;5.40;;;3.60;;
6412;SDS011;3239;48.714;9.472;2023-03-31T05:27:42;6.00;;;2.60;;
6412;SDS011;3239;48.714;9.472;2023-03-31T05:30:11;9.50;;;5.73;;
6412;SDS011;3239;48.714;9.472;2023-03-31T05:32:37;9.97;;;3.30;;
6412;SDS011;3239;48.714;9.472;2023-03-31T05:35:04;8.13;;;3.60;;
6412;SDS011;3239;48.714;9.472;2023-03-31T05:37:30;7.73;;;3.53;;
6412;SDS011;3239;48.714;9.472;2023-03-31T05:39:56;6.27;;;3.00;;
6412;SDS011;3239;48.714;9.472;2023-03-31T05:42:22;8.93;;;3.47;;
6412;SDS011;3239;48.714;9.472;2023-03-31T05:44:48;6.47;;;3.43;;
6412;SDS011;3239;48.714;9.472;2023-03-31T05:47:14;8.40;;;3.07;;
6412;SDS011;3239;48.714;9.472;2023-03-31T05:49:40;9.27;;;3.23;;
6412;SDS011;3239;48.714;9.472;2023-03-31T05:52:08;9.97;;;4.20;;
6412;SDS011;3239;48.714;9.472;2023-03-31T05:54:36;9.30;;;3.50;;
6412;SDS011;3239;48.714;9.472;2023-03-31T05:57:02;4.17;;;3.10;;
6412;SDS011;3239;48.714;9.472;2023-03-31T05:59:27;9.17;;;4.37;;
6412;SDS011;3239;48.714;9.472;2023-03-31T06:01:53;14.60;;;3.80;;
6412;SDS011;3239;48.714;9.472;2023-03-31T06:04:19;11.43;;;4.00;;
6412;SDS011;3239;48.714;9.472;2023-03-31T06:06:45;10.83;;;4.00;;
6412;SDS011;3239;48.714;9.472;2023-03-31T06:09:14;15.63;;;3.53;;
6412;SDS011;3239;48.714;9.472;2023-03-31T06:11:41;11.17;;;4.47;;
6412;SDS011;3239;48.714;9.472;2023-03-31T06:14:06;8.83;;;5.30;;
6412;SDS011;3239;48.714;9.472;2023-03-31T06:16:32;8.53;;;4.40;;
6412;SDS011;3239;48.714;9.472;2023-03-31T06:18:58;9.33;;;4.13;;
6412;SDS011;3239;48.714;9.472;2023-03-31T06:21:24;12.27;;;5.37;;
6412;SDS011;3239;48.714;9.472;2023-03-31T06:23:49;7.50;;;4.83;;
6412;SDS011;3239;48.714;9.472;2023-03-31T06:26:19;8.97;;;3.97;;
6412;SDS011;3239;48.714;9.472;2023-03-31T06:28:46;9.20;;;4.00;;
6412;SDS011;3239;48.714;9.472;2023-03-31T06:31:14;9.83;;;4.20;;
6412;SDS011;3239;48.714;9.472;2023-03-31T06:33:43;10.00;;;3.50;;
6412;SDS011;3239;48.714;9.472;2023-03-31T06:36:10;11.00;;;4.13;;
6412;SDS011;3239;48.714;9.472;2023-03-31T06:38:39;15.77;;;5.63;;
6412;SDS011;3239;48.714;9.472;2023-03-31T06:41:05;9.80;;;5.23;;
6412;SDS011;3239;48.714;9.472;2023-03-31T06:43:32;13.73;;;5.23;;
6412;SDS011;3239;48.714;9.472;2023-03-31T06:45:58;12.53;;;4.70;;
6412;SDS011;3239;48.714;9.472;2023-03-31T06:48:25;6.80;;;4.67;;
6412;SDS011;3239;48.714;9.472;2023-03-31T06:50:52;7.93;;;4.23;;
6412;SDS011;3239;48.714;9.472;2023-03-31T06:53:19;7.30;;;4.00;;
6412;SDS011;3239;48.714;9.472;2023-03-31T06:55:46;9.83;;;4.60;;
6412;SDS011;3239;48.714;9.472;2023-03-31T06:58:12;13.17;;;4.50;;
6412;SDS011;3239;48.714;9.472;2023-03-31T07:00:38;13.13;;;4.30;;
6412;SDS011;3239;48.714;9.472;2023-03-31T07:03:04;9.50;;;4.30;;
6412;SDS011;3239;48.714;9.472;2023-03-31T07:05:32;9.10;;;4.70;;
6412;SDS011;3239;48.714;9.472;2023-03-31T07:07:58;5.57;;;3.80;;
6412;SDS011;3239;48.714;9.472;2023-03-31T07:10:25;6.27;;;4.00;;
6412;SDS011;3239;48.714;9.472;2023-03-31T07:12:53;13.60;;;5.20;;
6412;SDS011;3239;48.714;9.472;2023-03-31T07:15:19;10.10;;;4.70;;
6412;SDS011;3239;48.714;9.472;2023-03-31T07:17:45;8.07;;;5.23;;
6412;SDS011;3239;48.714;9.472;2023-03-31T07:20:15;13.20;;;4.80;;
6412;SDS011;3239;48.714;9.472;2023-03-31T07:22:43;10.13;;;5.30;;
6412;SDS011;3239;48.714;9.472;2023-03-31T07:25:10;18.77;;;6.10;;
6412;SDS011;3239;48.714;9.472;2023-03-31T07:27:39;19.23;;;5.70;;
6412;SDS011;3239;48.714;9.472;2023-03-31T07:30:06;12.17;;;5.53;;
6412;SDS011;3239;48.714;9.472;2023-03-31T07:32:41;10.80;;;4.73;;
6412;SDS011;3239;48.714;9.472;2023-03-31T07:35:08;12.77;;;4.53;;
6412;SDS011;3239;48.714;9.472;2023-03-31T07:37:39;9.70;;;4.13;;
6412;SDS011;3239;48.714;9.472;2023-03-31T07:40:08;9.87;;;3.73;;
6412;SDS011;3239;48.714;9.472;2023-03-31T07:42:36;6.23;;;3.10;;
6412;SDS011;3239;48.714;9.472;2023-03-31T07:45:02;5.47;;;2.70;;
6412;SDS011;3239;48.714;9.472;2023-03-31T07:47:32;7.57;;;2.20;;
6412;SDS011;3239;48.714;9.472;2023-03-31T07:49:58;3.30;;;1.70;;
6412;SDS011;3239;48.714;9.472;2023-03-31T07:52:24;4.57;;;2.00;;
6412;SDS011;3239;48.714;9.472;2023-03-31T07:54:49;3.27;;;1.73;;
6412;SDS011;3239;48.714;9.472;2023-03-31T07:57:15;2.03;;;0.90;;
6412;SDS011;3239;48.714;9.472;2023-03-31T07:59:44;6.43;;;1.30;;
6412;SDS011;3239;48.714;9.472;2023-03-31T08:02:11;4.57;;;1.33;;
6412;SDS011;3239;48.714;9.472;2023-03-31T08:04:39;2.20;;;1.10;;
6412;SDS011;3239;48.714;9.472;2023-03-31T08:07:09;2.30;;;1.43;;
6412;SDS011;3239;48.714;9.472;2023-03-31T08:09:41;2.73;;;1.50;;
6412;SDS011;3239;48.714;9.472;2023-03-31T08:12:09;3.27;;;1.60;;
6412;SDS011;3239;48.714;9.472;2023-03-31T08:14:35;2.37;;;1.60;;
6412;SDS011;3239;48.714;9.472;2023-03-31T08:17:01;2.13;;;1.37;;
6412;SDS011;3239;48.714;9.472;2023-03-31T08:19:27;2.63;;;1.47;;
6412;SDS011;3239;48.714;9.472;2023-03-31T08:21:53;2.83;;;1.50;;
6412;SDS011;3239;48.714;9.472;2023-03-31T08:24:19;2.83;;;1.63;;
6412;SDS011;3239;48.714;9.472;2023-03-31T08:26:45;3.73;;;1.70;;
6412;SDS011;3239;48.714;9.472;2023-03-31T08:29:11;3.47;;;1.37;;
6412;SDS011;3239;48.714;9.472;2023-03-31T08:31:37;3.33;;;1.50;;
6412;SDS011;3239;48.714;9.472;2023-03-31T08:34:03;2.60;;;1.30;;
6412;SDS011;3239;48.714;9.472;2023-03-31T08:36:29;1.70;;;1.20;;
6412;SDS011;3239;48.714;9.472;2023-03-31T08:38:55;4.27;;;1.60;;
6412;SDS011;3239;48.714;9.472;2023-03-31T08:44:34;1.70;;;1.00;;
6412;SDS011;3239;48.714;9.472;2023-03-31T08:47:13;2.17;;;1.00;;
6412;SDS011;3239;48.714;9.472;2023-03-31T08:49:51;4.43;;;1.20;;
6412;SDS011;3239;48.714;9.472;2023-03-31T08:52:35;2.97;;;1.17;;
6412;SDS011;3239;48.714;9.472;2023-03-31T08:55:29;2.30;;;1.33;;
6412;SDS011;3239;48.714;9.472;2023-03-31T09:10:09;2.47;;;0.80;;
6412;SDS011;3239;48.714;9.472;2023-03-31T09:15:28;2.47;;;0.90;;
6412;SDS011;3239;48.714;9.472;2023-03-31T09:18:05;2.67;;;0.80;;
6412;SDS011;3239;48.714;9.472;2023-03-31T09:21:03;1.30;;;0.53;;
6412;SDS011;3239;48.714;9.472;2023-03-31T09:23:32;1.80;;;0.70;;
6412;SDS011;3239;48.714;9.472;2023-03-31T09:26:19;2.33;;;0.60;;
6412;SDS011;3239;48.714;9.472;2023-03-31T09:28:59;2.80;;;0.70;;
6412;SDS011;3239;48.714;9.472;2023-03-31T09:31:28;3.17;;;0.80;;
6412;SDS011;3239;48.714;9.472;2023-03-31T09:33:57;1.70;;;0.90;;
6412;SDS011;3239;48.714;9.472;2023-03-31T09:36:26;3.10;;;0.87;;
6412;SDS011;3239;48.714;9.472;2023-03-31T09:38:52;1.90;;;0.80;;
6412;SDS011;3239;48.714;9.472;2023-03-31T09:41:18;2.07;;;0.73;;
6412;SDS011;3239;48.714;9.472;2023-03-31T09:43:45;1.57;;;0.90;;
6412;SDS011;3239;48.714;9.472;2023-03-31T09:51:38;4.67;;;0.90;;
6412;SDS011;3239;48.714;9.472;2023-03-31T09:54:12;2.83;;;0.83;;
6412;SDS011;3239;48.714;9.472;2023-03-31T09:56:53;2.23;;;0.70;;
6412;SDS011;3239;48.714;9.472;2023-03-31T09:59:20;2.43;;;0.80;;
6412;SDS011;3239;48.714;9.472;2023-03-31T10:01:55;1.63;;;0.60;;
6412;SDS011;3239;48.714;9.472;2023-03-31T10:04:32;2.60;;;0.80;;
6412;SDS011;3239;48.714;9.472;2023-03-31T10:07:00;3.10;;;0.90;;
6412;SDS011;3239;48.714;9.472;2023-03-31T10:09:32;2.60;;;0.80;;
6412;SDS011;3239;48.714;9.472;2023-03-31T10:12:03;1.87;;;0.77;;
6412;SDS011;3239;48.714;9.472;2023-03-31T10:14:37;2.77;;;1.00;;
6412;SDS011;3239;48.714;9.472;2023-03-31T10:17:13;7.00;;;0.90;;
6412;SDS011;3239;48.714;9.472;2023-03-31T10:19:57;2.10;;;0.80;;
6412;SDS011;3239;48.714;9.472;2023-03-31T10:22:31;4.40;;;1.20;;
6412;SDS011;3239;48.714;9.472;2023-03-31T10:25:09;2.23;;;0.87;;
6412;SDS011;3239;48.714;9.472;2023-03-31T10:27:50;3.13;;;1.33;;
6412;SDS011;3239;48.714;9.472;2023-03-31T10:30:26;6.47;;;1.20;;
6412;SDS011;3239;48.714;9.472;2023-03-31T10:32:59;2.80;;;1.20;;
6412;SDS011;3239;48.714;9.472;2023-03-31T10:35:34;5.10;;;1.23;;
6412;SDS011;3239;48.714;9.472;2023-03-31T10:38:02;4.63;;;1.20;;
6412;SDS011;3239;48.714;9.472;2023-03-31T10:40:37;3.13;;;0.97;;
6412;SDS011;3239;48.714;9.472;2023-03-31T10:43:14;6.03;;;1.40;;
6412;SDS011;3239;48.714;9.472;2023-03-31T10:45:50;2.67;;;1.00;;
6412;SDS011;3239;48.714;9.472;2023-03-31T10:48:28;2.97;;;1.27;;
6412;SDS011;3239;48.714;9.472;2023-03-31T10:51:19;6.90;;;1.67;;
6412;SDS011;3239;48.714;9.472;2023-03-31T10:53:53;4.30;;;1.77;;
6412;SDS011;3239;48.714;9.472;2023-03-31T10:56:38;3.97;;;1.37;;
6412;SDS011;3239;48.714;9.472;2023-03-31T11:02:35;2.77;;;1.30;;
6412;SDS011;3239;48.714;9.472;2023-03-31T11:05:22;6.70;;;1.70;;
6412;SDS011;3239;48.714;9.472;2023-03-31T11:20:08;5.00;;;0.93;;
6412;SDS011;3239;48.714;9.472;2023-03-31T11:22:50;7.97;;;1.30;;
6412;SDS011;3239;48.714;9.472;2023-03-31T11:30:50;2.70;;;0.90;;
6412;SDS011;3239;48.714;9.472;2023-03-31T11:41:51;2.10;;;0.70;;
6412;SDS011;3239;48.714;9.472;2023-03-31T11:44:22;6.03;;;0.70;;
6412;SDS011;3239;48.714;9.472;2023-03-31T11:46:59;2.40;;;0.60;;
6412;SDS011;3239;48.714;9.472;2023-03-31T11:49:36;4.80;;;0.80;;
6412;SDS011;3239;48.714;9.472;2023-03-31T11:52:29;1.33;;;0.40;;
6412;SDS011;3239;48.714;9.472;2023-03-31T11:55:04;2.50;;;0.70;;
6412;SDS011;3239;48.714;9.472;2023-03-31T11:57:57;2.00;;;0.63;;
6412;SDS011;3239;48.714;9.472;2023-03-31T12:00:43;3.33;;;0.60;;
6412;SDS011;3239;48.714;9.472;2023-03-31T12:06:16;1.20;;;0.53;;
6412;SDS011;3239;48.714;9.472;2023-03-31T12:08:53;1.10;;;0.40;;
6412;SDS011;3239;48.714;9.472;2023-03-31T12:14:40;1.40;;;0.40;;
6412;SDS011;3239;48.714;9.472;2023-03-31T12:17:15;4.40;;;0.60;;
6412;SDS011;3239;48.714;9.472;2023-03-31T12:19:47;0.97;;;0.50;;
6412;SDS011;3239;48.714;9.472;2023-03-31T12:22:36;1.33;;;0.50;;
6412;SDS011;3239;48.714;9.472;2023-03-31T12:25:11;1.60;;;0.70;;
6412;SDS011;3239;48.714;9.472;2023-03-31T12:27:46;1.33;;;0.50;;
6412;SDS011;3239;48.714;9.472;2023-03-31T12:30:16;2.10;;;0.50;;
6412;SDS011;3239;48.714;9.472;2023-03-31T12:33:05;0.90;;;0.43;;
6412;SDS011;3239;48.714;9.472;2023-03-31T12:56:18;1.30;;;0.43;;
6412;SDS011;3239;48.714;9.472;2023-03-31T12:58:45;1.70;;;0.73;;
6412;SDS011;3239;48.714;9.472;2023-03-31T13:04:06;3.93;;;0.70;;
6412;SDS011;3239;48.714;9.472;2023-03-31T13:09:05;1.50;;;0.50;;
6412;SDS011;3239;48.714;9.472;2023-03-31T13:11:38;1.60;;;0.50;;
6412;SDS011;3239;48.714;9.472;2023-03-31T13:16:40;4.40;;;0.60;;
6412;SDS011;3239;48.714;9.472;2023-03-31T13:19:08;3.00;;;0.90;;
6412;SDS011;3239;48.714;9.472;2023-03-31T13:21:59;2.03;;;0.40;;
6412;SDS011;3239;48.714;9.472;2023-03-31T13:24:28;2.30;;;0.53;;
6412;SDS011;3239;48.714;9.472;2023-03-31T13:26:56;3.17;;;0.60;;
6412;SDS011;3239;48.714;9.472;2023-03-31T13:29:26;5.50;;;0.90;;
6412;SDS011;3239;48.714;9.472;2023-03-31T13:32:17;3.13;;;0.70;;
6412;SDS011;3239;48.714;9.472;2023-03-31T13:35:01;5.73;;;1.07;;
6412;SDS011;3239;48.714;9.472;2023-03-31T13:37:46;6.03;;;1.40;;
6412;SDS011;3239;48.714;9.472;2023-03-31T13:52:15;2.60;;;0.87;;
6412;SDS011;3239;48.714;9.472;2023-03-31T14:01:55;4.20;;;0.80;;
6412;SDS011;3239;48.714;9.472;2023-03-31T14:07:45;2.40;;;0.60;;
6412;SDS011;3239;48.714;9.472;2023-03-31T14:10:28;1.53;;;0.40;;
6412;SDS011;3239;48.714;9.472;2023-03-31T14:13:03;2.40;;;0.40;;
6412;SDS011;3239;48.714;9.472;2023-03-31T14:15:35;0.90;;;0.50;;
6412;SDS011;3239;48.714;9.472;2023-03-31T14:18:24;1.10;;;0.50;;
6412;SDS011;3239;48.714;9.472;2023-03-31T14:21:18;1.80;;;0.50;;
6412;SDS011;3239;48.714;9.472;2023-03-31T14:23:58;1.97;;;0.50;;
6412;SDS011;3239;48.714;9.472;2023-03-31T14:33:11;1.00;;;0.40;;
6412;SDS011;3239;48.714;9.472;2023-03-31T14:39:04;1.63;;;0.40;;
6412;SDS011;3239;48.714;9.472;2023-03-31T14:41:34;0.80;;;0.33;;
6412;SDS011;3239;48.714;9.472;2023-03-31T14:44:02;1.00;;;0.50;;
6412;SDS011;3239;48.714;9.472;2023-03-31T14:46:31;1.53;;;0.47;;
6412;SDS011;3239;48.714;9.472;2023-03-31T14:49:06;1.50;;;0.70;;
6412;SDS011;3239;48.714;9.472;2023-03-31T14:51:53;1.57;;;0.40;;
6412;SDS011;3239;48.714;9.472;2023-03-31T14:54:23;1.00;;;0.50;;
6412;SDS011;3239;48.714;9.472;2023-03-31T14:56:53;1.17;;;0.50;;
6412;SDS011;3239;48.714;9.472;2023-03-31T14:59:26;0.87;;;0.40;;
6412;SDS011;3239;48.714;9.472;2023-03-31T15:01:57;2.50;;;0.40;;
6412;SDS011;3239;48.714;9.472;2023-03-31T15:04:25;1.17;;;0.50;;
6412;SDS011;3239;48.714;9.472;2023-03-31T15:06:54;1.40;;;0.60;;
6412;SDS011;3239;48.714;9.472;2023-03-31T15:09:27;1.67;;;0.70;;
6412;SDS011;3239;48.714;9.472;2023-03-31T15:12:01;3.50;;;0.70;;
6412;SDS011;3239;48.714;9.472;2023-03-31T15:14:35;2.77;;;0.67;;
6412;SDS011;3239;48.714;9.472;2023-03-31T15:17:18;2.47;;;0.80;;
6412;SDS011;3239;48.714;9.472;2023-03-31T15:19:58;1.40;;;0.53;;
6412;SDS011;3239;48.714;9.472;2023-03-31T15:22:28;2.17;;;0.50;;
6412;SDS011;3239;48.714;9.472;2023-03-31T15:24:54;3.03;;;0.70;;
6412;SDS011;3239;48.714;9.472;2023-03-31T15:27:37;1.63;;;0.70;;
6412;SDS011;3239;48.714;9.472;2023-03-31T15:30:21;1.70;;;0.60;;
6412;SDS011;3239;48.714;9.472;2023-03-31T15:32:49;2.13;;;0.90;;
6412;SDS011;3239;48.714;9.472;2023-03-31T15:35:19;2.10;;;0.57;;
6412;SDS011;3239;48.714;9.472;2023-03-31T15:37:57;1.30;;;0.60;;
6412;SDS011;3239;48.714;9.472;2023-03-31T15:40:34;1.40;;;0.53;;
6412;SDS011;3239;48.714;9.472;2023-03-31T15:43:05;1.30;;;0.50;;
6412;SDS011;3239;48.714;9.472;2023-03-31T15:45:52;1.37;;;0.50;;
6412;SDS011;3239;48.714;9.472;2023-03-31T15:48:29;2.87;;;0.67;;
6412;SDS011;3239;48.714;9.472;2023-03-31T15:53:37;1.87;;;0.60;;
6412;SDS011;3239;48.714;9.472;2023-03-31T15:59:23;1.80;;;0.60;;
6412;SDS011;3239;48.714;9.472;2023-03-31T16:01:51;1.47;;;0.53;;
6412;SDS011;3239;48.714;9.472;2023-03-31T16:04:19;2.63;;;0.50;;
6412;SDS011;3239;48.714;9.472;2023-03-31T16:06:46;2.37;;;0.60;;
6412;SDS011;3239;48.714;9.472;2023-03-31T16:13:15;6.93;;;0.90;;
6412;SDS011;3239;48.714;9.472;2023-03-31T16:15:29;1.93;;;0.70;;
6412;SDS011;3239;48.714;9.472;2023-03-31T16:18:13;2.07;;;0.60;;
6412;SDS011;3239;48.714;9.472;2023-03-31T16:21:00;2.70;;;0.90;;
6412;SDS011;3239;48.714;9.472;2023-03-31T16:23:30;2.17;;;0.70;;
6412;SDS011;3239;48.714;9.472;2023-03-31T16:25:59;4.73;;;0.70;;
6412;SDS011;3239;48.714;9.472;2023-03-31T16:28:30;1.70;;;0.80;;
6412;SDS011;3239;48.714;9.472;2023-03-31T16:30:59;3.27;;;0.80;;
6412;SDS011;3239;48.714;9.472;2023-03-31T16:33:26;5.50;;;0.70;;
6412;SDS011;3239;48.714;9.472;2023-03-31T16:35:57;2.80;;;0.60;;
6412;SDS011;3239;48.714;9.472;2023-03-31T16:38:27;4.73;;;0.90;;
6412;SDS011;3239;48.714;9.472;2023-03-31T16:40:56;3.43;;;0.93;;
6412;SDS011;3239;48.714;9.472;2023-03-31T16:43:29;2.10;;;0.80;;
6412;SDS011;3239;48.714;9.472;2023-03-31T16:45:56;3.80;;;1.00;;
6412;SDS011;3239;48.714;9.472;2023-03-31T16:48:24;4.03;;;0.83;;
6412;SDS011;3239;48.714;9.472;2023-03-31T16:50:53;1.93;;;1.00;;
6412;SDS011;3239;48.714;9.472;2023-03-31T16:53:31;3.97;;;1.17;;
6412;SDS011;3239;48.714;9.472;2023-03-31T16:55:59;2.10;;;0.93;;
6412;SDS011;3239;48.714;9.472;2023-03-31T16:58:26;4.00;;;0.80;;
6412;SDS011;3239;48.714;9.472;2023-03-31T17:00:53;2.97;;;1.10;;
6412;SDS011;3239;48.714;9.472;2023-03-31T17:03:20;2.67;;;1.03;;
6412;SDS011;3239;48.714;9.472;2023-03-31T17:05:48;6.00;;;1.50;;
6412;SDS011;3239;48.714;9.472;2023-03-31T17:08:17;3.00;;;0.77;;
6412;SDS011;3239;48.714;9.472;2023-03-31T17:10:52;4.90;;;1.20;;
6412;SDS011;3239;48.714;9.472;2023-03-31T17:13:22;2.77;;;0.90;;
6412;SDS011;3239;48.714;9.472;2023-03-31T17:15:47;1.93;;;0.60;;
6412;SDS011;3239;48.714;9.472;2023-03-31T17:18:13;1.33;;;0.67;;
6412;SDS011;3239;48.714;9.472;2023-03-31T17:20:41;4.40;;;0.90;;
6412;SDS011;3239;48.714;9.472;2023-03-31T17:23:06;1.93;;;0.60;;
6412;SDS011;3239;48.714;9.472;2023-03-31T17:25:32;4.17;;;1.00;;
6412;SDS011;3239;48.714;9.472;2023-03-31T17:28:00;3.63;;;0.67;;
6412;SDS011;3239;48.714;9.472;2023-03-31T17:30:28;1.20;;;0.50;;
6412;SDS011;3239;48.714;9.472;2023-03-31T17:32:55;3.13;;;0.50;;
6412;SDS011;3239;48.714;9.472;2023-03-31T17:35:22;1.33;;;0.50;;
6412;SDS011;3239;48.714;9.472;2023-03-31T17:37:49;3.10;;;1.00;;
6412;SDS011;3239;48.714;9.472;2023-03-31T17:40:19;4.77;;;0.60;;
6412;SDS011;3239;48.714;9.472;2023-03-31T17:42:49;2.20;;;0.63;;
6412;SDS011;3239;48.714;9.472;2023-03-31T17:45:16;1.20;;;0.50;;
6412;SDS011;3239;48.714;9.472;2023-03-31T17:47:42;2.53;;;0.90;;
6412;SDS011;3239;48.714;9.472;2023-03-31T17:50:09;6.50;;;2.73;;
6412;SDS011;3239;48.714;9.472;2023-03-31T17:52:35;1.70;;;0.63;;
6412;SDS011;3239;48.714;9.472;2023-03-31T17:55:02;2.80;;;0.90;;
6412;SDS011;3239;48.714;9.472;2023-03-31T17:57:28;2.83;;;0.47;;
6412;SDS011;3239;48.714;9.472;2023-03-31T17:59:56;1.67;;;0.73;;
6412;SDS011;3239;48.714;9.472;2023-03-31T18:02:22;2.50;;;0.73;;
6412;SDS011;3239;48.714;9.472;2023-03-31T18:04:48;7.00;;;0.87;;
6412;SDS011;3239;48.714;9.472;2023-03-31T18:07:14;1.93;;;1.13;;
6412;SDS011;3239;48.714;9.472;2023-03-31T18:09:42;3.47;;;0.93;;
6412;SDS011;3239;48.714;9.472;2023-03-31T18:12:09;5.40;;;0.80;;
6412;SDS011;3239;48.714;9.472;2023-03-31T18:14:35;4.50;;;1.10;;
6412;SDS011;3239;48.714;9.472;2023-03-31T18:17:01;3.70;;;0.80;;
6412;SDS011;3239;48.714;9.472;2023-03-31T18:19:27;3.07;;;0.90;;
6412;SDS011;3239;48.714;9.472;2023-03-31T18:21:53;2.77;;;0.90;;
6412;SDS011;3239;48.714;9.472;2023-03-31T18:24:19;1.70;;;1.00;;
6412;SDS011;3239;48.714;9.472;2023-03-31T18:26:46;2.83;;;1.20;;
6412;SDS011;3239;48.714;9.472;2023-03-31T18:29:12;2.30;;;1.30;;